createdAt,value
2023-05-08T00:01:16.021Z,63.3
2023-05-08T00:07:09.086Z,63.3
2023-05-08T00:13:00.767Z,63.2
2023-05-08T00:18:52.479Z,63.1
2023-05-08T00:24:44.498Z,63.1
2023-05-08T00:30:36.252Z,63
2023-05-08T00:36:11.953Z,63
2023-05-08T00:42:03.560Z,62.9
2023-05-08T00:47:55.976Z,62.9
2023-05-08T00:53:31.222Z,62.8
2023-05-08T00:58:51.283Z,62.8
2023-05-08T01:04:28.933Z,62.7
2023-05-08T01:09:48.864Z,62.6
2023-05-08T01:15:39.535Z,62.6
2023-05-08T01:21:31.055Z,62.5
2023-05-08T01:27:22.452Z,62.4
2023-05-08T01:33:14.613Z,62.4
2023-05-08T01:39:06.567Z,62.4
2023-05-08T01:44:58.690Z,62.3
2023-05-08T01:50:34.658Z,62.3
2023-05-08T01:56:27.074Z,62.2
2023-05-08T02:02:18.914Z,62.1
2023-05-08T02:08:10.292Z,62.1
2023-05-08T02:14:02.502Z,62
2023-05-08T02:19:54.703Z,61.9
2023-05-08T02:25:46.376Z,61.9
2023-05-08T02:31:38.337Z,61.9
2023-05-08T02:37:38.048Z,61.8
2023-05-08T02:43:29.734Z,61.8
2023-05-08T02:49:24.511Z,61.7
2023-05-08T02:55:16.155Z,61.6
2023-05-08T03:01:07.564Z,61.6
2023-05-08T03:07:00.021Z,61.5
2023-05-08T03:12:51.104Z,61.4
2023-05-08T03:18:43.246Z,61.4
2023-05-08T03:24:35.073Z,61.3
2023-05-08T03:30:26.097Z,61.3
2023-05-08T03:36:18.131Z,61.3
2023-05-08T03:42:09.262Z,61.2
2023-05-08T03:48:01.447Z,61.1
2023-05-08T03:53:53.348Z,61.1
2023-05-08T03:59:45.137Z,61
2023-05-08T04:05:36.724Z,60.9
2023-05-08T04:11:35.980Z,60.9
2023-05-08T04:17:30.758Z,60.8
2023-05-08T04:23:22.224Z,60.8
2023-05-08T04:29:13.896Z,60.7
2023-05-08T04:35:06.389Z,60.6
2023-05-08T04:40:58.897Z,60.6
2023-05-08T04:46:51.192Z,60.6
2023-05-08T04:52:43.632Z,60.5
2023-05-08T04:58:34.627Z,60.4
2023-05-08T05:04:26.621Z,60.4
2023-05-08T05:10:18.541Z,60.3
2023-05-08T05:16:10.990Z,60.3
2023-05-08T05:22:03.558Z,60.2
2023-05-08T05:27:54.808Z,60.1
2023-05-08T05:33:46.305Z,60.1
2023-05-08T05:39:39.012Z,60
2023-05-08T05:45:32.593Z,60
2023-05-08T05:51:24.907Z,59.9
2023-05-08T05:57:17.021Z,59.9
2023-05-08T06:03:09.028Z,59.8
2023-05-08T06:09:02.812Z,59.8
2023-05-08T06:14:56.483Z,59.7
2023-05-08T06:20:49.492Z,59.7
2023-05-08T06:26:40.733Z,59.6
2023-05-08T06:32:33.011Z,59.6
2023-05-08T06:38:28.274Z,59.5
2023-05-08T06:44:29.361Z,59.4
2023-05-08T06:50:21.857Z,59.3
2023-05-08T06:56:14.117Z,59.3
2023-05-08T07:02:14.622Z,59.3
2023-05-08T07:08:07.477Z,59.2
2023-05-08T07:14:00.581Z,59.1
2023-05-08T07:20:10.026Z,59.1
2023-05-08T07:26:02.458Z,59
2023-05-08T07:31:56.186Z,58.9
2023-05-08T07:37:48.148Z,58.8
2023-05-08T07:43:26.013Z,58.8
2023-05-08T07:49:14.357Z,58.7
2023-05-08T07:55:07.148Z,58.6
2023-05-08T08:06:37.452Z,58.5
2023-05-08T08:12:29.432Z,58.4
2023-05-08T08:18:22.973Z,58.4
2023-05-08T08:24:15.981Z,58.3
2023-05-08T08:30:20.058Z,58.3
2023-05-08T08:36:13.619Z,58.2
2023-05-08T08:42:07.075Z,58.1
2023-05-08T08:47:47.611Z,58.1
2023-05-08T08:53:40.337Z,58
2023-05-08T08:59:33.308Z,57.9
2023-05-08T09:05:28.724Z,57.9
2023-05-08T09:11:21.218Z,57.8
2023-05-08T09:17:18.042Z,57.8
2023-05-08T09:28:47.764Z,57.6
2023-05-08T09:34:41.118Z,57.5
2023-05-08T09:40:33.741Z,57.5
2023-05-08T09:46:26.872Z,57.4
2023-05-08T09:52:21.681Z,57.4
2023-05-08T09:58:14.258Z,57.3
2023-05-08T10:04:07.579Z,57.3
2023-05-08T10:10:20.008Z,57.2
2023-05-08T10:16:12.098Z,57.1
2023-05-08T10:22:03.705Z,57.1
2023-05-08T10:28:11.683Z,57
2023-05-08T10:34:03.969Z,56.9
2023-05-08T10:39:55.705Z,56.9
2023-05-08T10:45:49.103Z,56.8
2023-05-08T10:51:41.432Z,56.8
2023-05-08T10:57:34.452Z,56.7
2023-05-08T11:03:40.160Z,56.6
2023-05-08T11:09:33.333Z,56.6
2023-05-08T11:15:24.754Z,56.5
2023-05-08T11:21:28.342Z,56.4
2023-05-08T11:27:20.425Z,56.3
2023-05-08T11:33:12.780Z,56.5
2023-05-08T11:39:04.862Z,57.1
2023-05-08T11:44:56.078Z,57.7
2023-05-08T11:50:52.122Z,58.3
2023-05-08T11:56:28.639Z,58.9
2023-05-08T12:02:40.205Z,59.2
2023-05-08T12:08:33.836Z,59.6
2023-05-08T12:14:27.183Z,60
2023-05-08T12:20:04.446Z,60.1
2023-05-08T12:25:55.775Z,60.2
2023-05-08T12:31:47.665Z,60.2
2023-05-08T12:37:39.219Z,60.1
2023-05-08T12:43:31.425Z,60.1
2023-05-08T12:49:09.100Z,60.3
2023-05-08T12:54:45.671Z,60.4
2023-05-08T13:00:38.011Z,60.3
2023-05-08T13:06:43.793Z,60.3
2023-05-08T13:12:38.914Z,60.3
2023-05-08T13:18:32.443Z,60.3
2023-05-08T13:24:24.745Z,60.3
2023-05-08T13:30:19.511Z,60.2
2023-05-08T13:36:15.611Z,60.2
2023-05-08T13:42:08.790Z,60.1
2023-05-08T13:48:00.835Z,60.1
2023-05-08T13:54:00.809Z,60.1
2023-05-08T13:59:53.826Z,60
2023-05-08T14:06:01.307Z,59.9
2023-05-08T14:11:58.286Z,59.9
2023-05-08T14:17:55.044Z,59.9
2023-05-08T14:23:48.608Z,59.8
2023-05-08T14:29:41.590Z,59.8
2023-05-08T14:35:20.882Z,59.8
2023-05-08T14:40:57.591Z,59.7
2023-05-08T14:47:10.141Z,59.7
2023-05-08T15:15:04.468Z,59.4
2023-05-08T15:20:58.303Z,59.4
2023-05-08T15:26:49.808Z,59.3
2023-05-08T15:32:43.101Z,59.3
2023-05-08T15:38:23.727Z,59.2
2023-05-08T15:44:14.716Z,59.1
2023-05-08T15:50:19.988Z,59.1
2023-05-08T15:56:12.808Z,59.1
2023-05-08T16:02:12.364Z,59
2023-05-08T16:08:06.836Z,58.9
2023-05-08T16:14:01.056Z,58.9
2023-05-08T16:19:37.783Z,58.9
2023-05-08T16:25:31.573Z,58.8
2023-05-08T16:31:24.895Z,58.8
2023-05-08T16:37:22.538Z,58.7
2023-05-08T16:43:22.268Z,58.7
2023-05-08T16:49:09.081Z,58.6
2023-05-08T17:00:54.154Z,58.5
2023-05-08T17:06:57.441Z,58.5
2023-05-08T17:12:57.997Z,58.4
2023-05-08T17:19:00.485Z,58.4
2023-05-08T17:24:46.514Z,58.4
2023-05-08T17:30:46.545Z,58.3
2023-05-08T17:36:51.138Z,58.3
2023-05-08T17:42:53.059Z,58.2
2023-05-08T17:48:54.408Z,58.1
2023-05-08T17:54:57.675Z,58.1
2023-05-08T18:00:59.213Z,58.1
2023-05-08T18:06:54.789Z,58
2023-05-08T18:12:50.210Z,57.9
2023-05-08T18:18:43.524Z,57.9
2023-05-08T18:24:35.108Z,57.9
2023-05-08T18:30:29.372Z,57.8
2023-05-08T18:36:22.716Z,57.8
2023-05-08T18:47:55.641Z,57.7
2023-05-08T18:53:49.233Z,57.6
2023-05-08T18:59:40.633Z,57.6
2023-05-08T19:05:35.830Z,57.6
2023-05-08T19:11:28.432Z,57.5
2023-05-08T19:17:21.092Z,57.4
2023-05-08T19:23:15.240Z,57.4
2023-05-08T19:29:08.765Z,57.4
2023-05-08T19:34:46.178Z,57.3
2023-05-08T19:40:52.324Z,57.3
2023-05-08T19:46:49.384Z,57.3
2023-05-08T19:52:47.980Z,57.2
2023-05-08T19:58:42.410Z,57.1
2023-05-08T20:04:46.761Z,57.1
2023-05-08T20:10:49.218Z,57.1
2023-05-08T20:16:27.331Z,57
2023-05-08T20:22:20.684Z,56.9
2023-05-08T20:28:11.751Z,56.9
2023-05-08T20:34:06.579Z,56.9
2023-05-08T20:39:59.444Z,56.8
2023-05-08T20:45:50.852Z,56.8
2023-05-08T20:51:44.242Z,56.7
2023-05-08T20:57:41.862Z,56.7
2023-05-08T21:03:21.396Z,56.6
2023-05-08T21:09:15.259Z,56.6
2023-05-08T21:15:07.955Z,56.6
2023-05-08T21:20:59.470Z,56.5
2023-05-08T21:26:52.991Z,56.4
2023-05-08T21:32:45.884Z,56.4
2023-05-08T21:38:37.632Z,56.4
2023-05-08T21:44:30.545Z,56.3
2023-05-08T21:50:22.292Z,56.3
2023-05-08T21:56:12.164Z,56.3
2023-05-08T22:02:06.403Z,56.2
2023-05-08T22:07:59.248Z,56.1
2023-05-08T22:13:51.154Z,56.1
2023-05-08T22:20:01.253Z,56.1
2023-05-08T22:25:53.766Z,56
2023-05-08T22:31:29.613Z,55.9
2023-05-08T22:37:22.794Z,55.9
2023-05-08T22:43:14.524Z,55.9
2023-05-08T22:49:06.078Z,55.9
2023-05-08T22:54:59.143Z,55.8
2023-05-08T23:00:52.192Z,55.8
2023-05-08T23:06:43.567Z,55.7
2023-05-08T23:12:36.506Z,55.6
2023-05-08T23:18:28.562Z,55.6
2023-05-08T23:24:20.814Z,55.6
2023-05-08T23:30:13.922Z,55.5
2023-05-08T23:36:06.372Z,55.5
2023-05-08T23:41:56.446Z,55.4
2023-05-08T23:47:49.843Z,55.4
2023-05-08T23:53:42.431Z,55.3
2023-05-08T23:59:33.641Z,55.3
